createdAt,value
2018-06-04T00:00:14.540Z,6.43
2018-06-04T00:03:12.741Z,5.60
2018-06-04T00:06:10.796Z,6.00
2018-06-04T00:09:09.008Z,6.43
2018-06-04T00:12:06.910Z,5.70
2018-06-04T00:15:04.606Z,5.87
2018-06-04T00:18:02.635Z,6.13
2018-06-04T00:21:00.648Z,6.00
2018-06-04T00:23:57.893Z,5.97
2018-06-04T00:26:57.064Z,6.37
2018-06-04T00:29:54.975Z,5.30
2018-06-04T00:32:53.208Z,5.57
2018-06-04T00:35:50.396Z,5.83
2018-06-04T00:38:47.506Z,6.43
2018-06-04T00:41:45.535Z,6.23
2018-06-04T00:44:43.725Z,6.40
2018-06-04T00:47:41.684Z,6.13
2018-06-04T00:50:40.792Z,5.77
2018-06-04T00:53:38.908Z,6.03
2018-06-04T00:56:40.351Z,5.90
2018-06-04T00:59:37.635Z,5.90
2018-06-04T01:02:36.789Z,6.07
2018-06-04T01:05:34.824Z,6.20
2018-06-04T01:08:32.823Z,6.13
2018-06-04T01:11:31.079Z,5.90
2018-06-04T01:14:29.151Z,6.63
2018-06-04T01:17:27.260Z,5.80
2018-06-04T01:20:33.609Z,7.20
2018-06-04T01:23:31.755Z,5.77
2018-06-04T01:26:28.988Z,5.73
2018-06-04T01:29:27.112Z,7.03
2018-06-04T01:32:25.203Z,6.50
2018-06-04T01:35:23.150Z,6.50
2018-06-04T01:38:21.117Z,6.70
2018-06-04T01:41:19.127Z,6.67
2018-06-04T01:44:17.143Z,7.10
2018-06-04T01:47:15.044Z,6.60
2018-06-04T01:50:13.128Z,6.63
2018-06-04T01:53:11.263Z,6.20
2018-06-04T01:56:08.519Z,6.23
2018-06-04T01:59:06.724Z,7.27
2018-06-04T02:02:04.233Z,7.80
2018-06-04T02:05:02.387Z,7.37
2018-06-04T02:08:00.603Z,7.00
2018-06-04T02:10:58.453Z,7.27
2018-06-04T02:13:55.688Z,7.20
2018-06-04T02:16:53.791Z,7.13
2018-06-04T02:19:51.351Z,7.50
2018-06-04T02:22:49.504Z,7.70
2018-06-04T02:25:47.490Z,6.70
2018-06-04T02:28:44.816Z,6.10
2018-06-04T02:31:42.854Z,7.63
2018-06-04T02:34:41.043Z,5.97
2018-06-04T02:37:39.250Z,5.43
2018-06-04T02:40:37.145Z,6.27
2018-06-04T02:43:35.207Z,5.07
2018-06-04T02:46:32.521Z,5.47
2018-06-04T02:49:30.752Z,4.30
2018-06-04T02:52:28.776Z,5.33
2018-06-04T02:55:26.989Z,4.73
2018-06-04T02:58:24.809Z,4.20
2018-06-04T03:01:22.850Z,4.70
2018-06-04T03:04:21.181Z,4.13
2018-06-04T03:07:19.187Z,3.70
2018-06-04T03:10:16.497Z,3.77
2018-06-04T03:13:14.661Z,3.80
2018-06-04T03:16:12.624Z,3.03
2018-06-04T03:19:09.937Z,3.27
2018-06-04T03:22:07.995Z,2.97
2018-06-04T03:25:05.850Z,3.27
2018-06-04T03:28:04.180Z,3.37
2018-06-04T03:31:01.557Z,2.70
2018-06-04T03:33:59.508Z,3.10
2018-06-04T03:36:56.701Z,3.03
2018-06-04T03:39:54.768Z,2.70
2018-06-04T03:42:52.919Z,2.63
2018-06-04T03:45:51.058Z,2.47
2018-06-04T03:48:49.224Z,2.40
2018-06-04T03:51:46.782Z,2.57
2018-06-04T03:54:45.027Z,2.73
2018-06-04T03:57:42.992Z,2.53
2018-06-04T04:00:41.143Z,2.63
2018-06-04T04:03:39.332Z,2.40
2018-06-04T04:06:37.346Z,2.30
2018-06-04T04:09:34.743Z,2.50
2018-06-04T04:12:31.870Z,2.30
2018-06-04T04:15:29.282Z,2.10
2018-06-04T04:18:26.695Z,2.50
2018-06-04T04:21:24.854Z,1.90
2018-06-04T04:24:22.945Z,1.73
2018-06-04T04:27:21.065Z,1.90
2018-06-04T04:30:18.988Z,2.23
2018-06-04T04:33:16.324Z,1.80
2018-06-04T04:36:13.529Z,1.70
2018-06-04T04:39:11.744Z,1.80
2018-06-04T04:42:09.004Z,1.30
2018-06-04T04:45:07.055Z,1.50
2018-06-04T04:48:04.987Z,1.53
2018-06-04T04:51:02.972Z,1.60
2018-06-04T04:54:02.000Z,1.90
2018-06-04T04:56:59.915Z,1.30
2018-06-04T04:59:57.435Z,1.60
2018-06-04T05:02:55.497Z,1.40
2018-06-04T05:05:52.864Z,1.73
2018-06-04T05:08:50.930Z,1.90
2018-06-04T05:11:49.818Z,2.23
2018-06-04T05:14:50.085Z,2.77
2018-06-04T05:17:47.551Z,1.37
2018-06-04T05:20:45.316Z,1.50
2018-06-04T05:23:42.943Z,1.77
2018-06-04T05:26:41.198Z,2.20
2018-06-04T05:29:40.313Z,1.63
2018-06-04T05:32:38.642Z,1.70
2018-06-04T05:35:36.631Z,1.83
2018-06-04T05:38:34.569Z,1.60
2018-06-04T05:41:32.580Z,2.00
2018-06-04T05:44:31.125Z,1.10
2018-06-04T05:47:29.177Z,1.17
2018-06-04T05:50:26.634Z,1.30
2018-06-04T05:53:24.649Z,1.40
2018-06-04T05:56:22.633Z,1.80
2018-06-04T05:59:19.915Z,1.50
2018-06-04T06:02:18.171Z,2.20
2018-06-04T06:05:15.400Z,1.73
2018-06-04T06:08:13.511Z,1.70
2018-06-04T06:11:11.546Z,1.77
2018-06-04T06:14:09.703Z,1.50
2018-06-04T06:17:06.858Z,1.30
2018-06-04T06:20:05.089Z,1.40
2018-06-04T06:23:04.062Z,1.40
2018-06-04T06:26:02.084Z,1.90
2018-06-04T06:28:59.412Z,1.53
2018-06-04T06:31:57.129Z,1.87
2018-06-04T06:34:55.075Z,1.33
2018-06-04T06:37:54.285Z,1.50
2018-06-04T06:40:51.767Z,1.50
2018-06-04T06:43:49.816Z,1.73
2018-06-04T06:46:50.070Z,2.13
2018-06-04T06:49:48.782Z,1.63
2018-06-04T06:52:46.392Z,1.93
2018-06-04T06:55:43.818Z,1.70
2018-06-04T06:58:42.928Z,1.60
2018-06-04T07:01:41.998Z,1.70
2018-06-04T07:04:40.970Z,1.90
2018-06-04T07:07:40.047Z,1.47
2018-06-04T07:10:38.051Z,1.90
2018-06-04T07:13:36.140Z,1.70
2018-06-04T07:16:33.633Z,2.07
2018-06-04T07:19:31.770Z,1.90
2018-06-04T07:22:28.906Z,1.77
2018-06-04T07:25:28.165Z,1.50
2018-06-04T07:28:26.483Z,1.63
2018-06-04T07:31:24.281Z,1.30
2018-06-04T07:34:22.316Z,1.80
2018-06-04T07:37:22.286Z,1.60
2018-06-04T07:40:21.318Z,1.63
2018-06-04T07:43:19.497Z,2.53
2018-06-04T07:46:17.473Z,1.50
2018-06-04T07:49:15.364Z,1.73
2018-06-04T07:52:13.529Z,2.00
2018-06-04T07:55:11.377Z,2.07
2018-06-04T07:58:08.752Z,1.70
2018-06-04T08:01:06.553Z,2.00
2018-06-04T08:04:04.533Z,1.80
2018-06-04T08:07:02.720Z,1.87
2018-06-04T08:10:00.919Z,2.13
2018-06-04T08:12:58.756Z,2.10
2018-06-04T08:15:56.801Z,2.00
2018-06-04T08:18:54.146Z,1.60
2018-06-04T08:21:52.207Z,2.90
2018-06-04T08:24:49.567Z,2.30
2018-06-04T08:27:47.648Z,2.10
2018-06-04T08:30:45.828Z,2.10
2018-06-04T08:33:43.953Z,1.60
2018-06-04T08:36:41.219Z,2.20
2018-06-04T08:39:39.345Z,1.40
2018-06-04T08:42:37.133Z,1.60
2018-06-04T08:45:27.306Z,1.53
2018-06-04T08:48:25.388Z,1.50
2018-06-04T08:51:23.491Z,2.00
2018-06-04T08:54:21.497Z,2.13
2018-06-04T09:00:31.204Z,1.80
2018-06-04T09:03:29.461Z,1.80
2018-06-04T09:06:27.731Z,1.83
2018-06-04T09:09:25.863Z,2.00
2018-06-04T09:12:16.217Z,2.20
2018-06-04T09:15:14.204Z,2.10
2018-06-04T09:18:11.378Z,2.53
2018-06-04T09:21:08.595Z,1.60
2018-06-04T09:24:06.650Z,1.73
2018-06-04T09:27:03.924Z,2.40
2018-06-04T09:30:02.075Z,1.90
2018-06-04T09:33:00.086Z,2.07
2018-06-04T09:35:58.062Z,1.93
2018-06-04T09:38:56.160Z,2.00
2018-06-04T09:41:54.216Z,2.07
2018-06-04T09:44:52.073Z,2.33
2018-06-04T09:47:50.220Z,2.20
2018-06-04T09:50:48.128Z,1.50
2018-06-04T09:53:46.996Z,1.60
2018-06-04T09:56:44.424Z,1.50
2018-06-04T09:59:42.498Z,1.73
2018-06-04T10:02:40.536Z,1.37
2018-06-04T10:05:37.845Z,1.57
2018-06-04T10:08:35.929Z,1.40
2018-06-04T10:11:34.351Z,2.00
2018-06-04T10:14:32.242Z,1.77
2018-06-04T10:17:30.529Z,1.60
2018-06-04T10:20:28.449Z,2.03
2018-06-04T10:23:27.305Z,1.80
2018-06-04T10:26:24.947Z,1.30
2018-06-04T10:29:22.925Z,3.00
2018-06-04T10:32:21.288Z,1.33
2018-06-04T10:35:19.898Z,1.20
2018-06-04T10:38:18.057Z,1.60
2018-06-04T10:41:15.365Z,1.50
2018-06-04T10:44:13.615Z,1.43
2018-06-04T10:47:11.675Z,1.20
2018-06-04T10:50:08.855Z,1.50
2018-06-04T10:53:06.820Z,2.07
2018-06-04T10:56:04.724Z,1.43
2018-06-04T10:59:02.845Z,1.87
2018-06-04T11:02:00.593Z,1.30
2018-06-04T11:04:58.032Z,2.03
2018-06-04T11:07:56.116Z,1.60
2018-06-04T11:10:54.243Z,1.70
2018-06-04T11:13:52.421Z,1.30
2018-06-04T11:16:50.412Z,1.43
2018-06-04T11:19:47.793Z,3.93
2018-06-04T11:22:45.730Z,1.27
2018-06-04T11:25:43.012Z,1.17
2018-06-04T11:28:40.988Z,1.63
2018-06-04T11:31:39.062Z,1.20
2018-06-04T11:34:37.615Z,1.70
2018-06-04T11:37:35.268Z,1.20
2018-06-04T11:40:33.643Z,1.00
2018-06-04T11:43:31.451Z,2.60
2018-06-04T11:46:29.565Z,1.03
2018-06-04T11:49:27.280Z,1.57
2018-06-04T11:52:25.344Z,1.40
2018-06-04T11:55:24.481Z,1.43
2018-06-04T11:58:22.432Z,1.53
2018-06-04T12:01:20.363Z,1.27
2018-06-04T12:04:18.397Z,1.20
2018-06-04T12:07:15.681Z,1.30
2018-06-04T12:10:13.687Z,1.90
2018-06-04T12:13:12.006Z,1.73
2018-06-04T12:16:10.907Z,1.70
2018-06-04T12:19:08.107Z,8.30
2018-06-04T12:22:06.193Z,1.50
2018-06-04T12:25:04.168Z,1.50
2018-06-04T12:28:01.458Z,1.40
2018-06-04T12:30:59.553Z,1.60
2018-06-04T12:34:04.463Z,1.87
2018-06-04T12:37:02.631Z,1.50
2018-06-04T12:40:00.817Z,1.30
2018-06-04T12:42:59.030Z,1.70
2018-06-04T12:45:57.241Z,1.60
2018-06-04T12:49:01.294Z,2.13
2018-06-04T12:51:59.307Z,1.30
2018-06-04T12:55:02.228Z,1.50
2018-06-04T12:58:00.313Z,1.70
2018-06-04T13:00:59.401Z,1.60
2018-06-04T13:03:57.460Z,1.40
2018-06-04T13:06:55.760Z,1.60
2018-06-04T13:09:53.710Z,1.73
2018-06-04T13:12:51.906Z,1.70
2018-06-04T13:15:50.946Z,1.47
2018-06-04T13:18:50.147Z,1.20
2018-06-04T13:21:48.643Z,1.50
2018-06-04T13:24:45.961Z,1.60
2018-06-04T13:27:44.243Z,2.07
2018-06-04T13:30:43.096Z,1.23
2018-06-04T13:33:41.116Z,1.33
2018-06-04T13:36:39.071Z,1.57
2018-06-04T13:39:37.050Z,1.40
2018-06-04T13:42:34.399Z,1.13
2018-06-04T13:45:32.745Z,1.30
2018-06-04T13:48:30.260Z,1.13
2018-06-04T13:51:28.455Z,1.30
2018-06-04T13:54:26.554Z,1.17
2018-06-04T13:57:24.344Z,1.20
2018-06-04T14:00:21.506Z,1.50
2018-06-04T14:03:19.558Z,1.47
2018-06-04T14:06:17.182Z,1.70
2018-06-04T14:09:14.935Z,1.83
2018-06-04T14:12:12.972Z,1.43
2018-06-04T14:15:10.928Z,1.40
2018-06-04T14:18:08.799Z,1.20
2018-06-04T14:21:06.036Z,1.70
2018-06-04T14:24:04.161Z,1.80
2018-06-04T14:27:02.225Z,2.40
2018-06-04T14:30:00.423Z,1.53
2018-06-04T14:32:58.440Z,1.27
2018-06-04T14:35:57.713Z,1.53
2018-06-04T14:38:55.846Z,1.90
2018-06-04T14:41:53.134Z,1.57
2018-06-04T14:44:51.262Z,1.40
2018-06-04T14:47:50.204Z,1.07
2018-06-04T14:50:48.450Z,1.37
2018-06-04T14:53:46.732Z,1.50
2018-06-04T14:56:44.676Z,1.70
2018-06-04T14:59:42.892Z,1.50
2018-06-04T15:02:41.103Z,1.40
2018-06-04T15:05:38.788Z,1.20
2018-06-04T15:08:36.906Z,1.30
2018-06-04T15:11:35.179Z,1.40
2018-06-04T15:14:33.126Z,2.00
2018-06-04T15:17:30.856Z,1.80
2018-06-04T15:20:28.167Z,1.20
2018-06-04T15:23:26.250Z,1.20
2018-06-04T15:26:24.320Z,1.87
2018-06-04T15:29:22.009Z,1.40
2018-06-04T15:32:20.053Z,1.70
2018-06-04T15:35:17.296Z,1.37
2018-06-04T15:38:15.274Z,2.47
2018-06-04T15:41:13.100Z,1.47
2018-06-04T15:44:11.360Z,1.90
2018-06-04T15:47:03.118Z,1.50
2018-06-04T15:50:01.150Z,1.70
2018-06-04T15:52:59.262Z,1.50
2018-06-04T15:55:57.224Z,1.30
2018-06-04T15:58:55.435Z,1.67
2018-06-04T16:01:55.403Z,2.00
2018-06-04T16:04:52.819Z,1.90
2018-06-04T16:07:50.782Z,1.30
2018-06-04T16:10:48.935Z,2.27
2018-06-04T16:13:47.015Z,1.40
2018-06-04T16:16:44.987Z,1.37
2018-06-04T16:19:44.092Z,1.70
2018-06-04T16:22:42.131Z,2.70
2018-06-04T16:25:41.110Z,1.70
2018-06-04T16:28:39.117Z,1.60
2018-06-04T16:31:37.012Z,1.40
2018-06-04T16:34:27.256Z,1.10
2018-06-04T16:37:25.368Z,1.20
2018-06-04T16:40:22.678Z,1.33
2018-06-04T16:43:20.655Z,1.70
2018-06-04T16:46:10.824Z,1.30
2018-06-04T16:49:08.885Z,1.60
2018-06-04T16:52:06.980Z,2.60
2018-06-04T16:55:05.173Z,1.40
2018-06-04T16:58:03.241Z,1.33
2018-06-04T17:01:00.492Z,1.47
2018-06-04T17:03:58.661Z,1.30
2018-06-04T17:06:57.592Z,2.03
2018-06-04T17:09:55.779Z,1.50
2018-06-04T17:12:45.542Z,3.03
2018-06-04T17:15:42.805Z,1.40
2018-06-04T17:18:40.871Z,1.40
2018-06-04T17:21:39.075Z,2.17
2018-06-04T17:24:37.211Z,2.10
2018-06-04T17:27:34.398Z,2.10
2018-06-04T17:30:33.275Z,1.80
2018-06-04T17:33:31.440Z,2.67
2018-06-04T17:36:29.499Z,2.33
2018-06-04T17:39:28.779Z,2.10
2018-06-04T17:42:26.456Z,1.33
2018-06-04T17:45:23.663Z,1.60
2018-06-04T17:48:21.452Z,2.10
2018-06-04T17:51:20.384Z,1.63
2018-06-04T17:54:18.662Z,1.70
2018-06-04T17:57:16.941Z,1.93
2018-06-04T18:00:15.267Z,1.87
2018-06-04T18:03:12.560Z,1.67
2018-06-04T18:06:10.762Z,1.67
2018-06-04T18:09:08.825Z,1.70
2018-06-04T18:12:06.885Z,1.23
2018-06-04T18:15:04.636Z,1.60
2018-06-04T18:18:02.657Z,1.37
2018-06-04T18:21:00.873Z,1.70
2018-06-04T18:23:58.967Z,1.70
2018-06-04T18:26:56.985Z,2.30
2018-06-04T18:29:54.207Z,1.67
2018-06-04T18:32:52.263Z,1.83
2018-06-04T18:35:51.189Z,1.70
2018-06-04T18:38:50.189Z,2.20
2018-06-04T18:41:48.208Z,2.10
2018-06-04T18:44:46.444Z,1.80
2018-06-04T18:47:44.447Z,2.23
2018-06-04T18:50:42.150Z,1.70
2018-06-04T18:53:40.247Z,1.10
2018-06-04T18:56:39.509Z,1.30
2018-06-04T18:59:37.540Z,1.57
2018-06-04T19:02:35.662Z,1.30
2018-06-04T19:05:33.587Z,1.20
2018-06-04T19:08:30.880Z,1.60
2018-06-04T19:11:29.035Z,1.97
2018-06-04T19:14:27.193Z,1.40
2018-06-04T19:17:24.590Z,1.43
2018-06-04T19:20:22.887Z,1.90
2018-06-04T19:23:20.877Z,1.50
2018-06-04T19:26:19.848Z,1.10
2018-06-04T19:29:17.750Z,1.60
2018-06-04T19:32:15.698Z,1.23
2018-06-04T19:35:13.711Z,1.00
2018-06-04T19:38:11.931Z,1.83
2018-06-04T19:41:09.803Z,1.30
2018-06-04T19:44:07.882Z,2.10
2018-06-04T19:47:06.068Z,2.10
2018-06-04T19:50:03.272Z,2.07
2018-06-04T19:53:01.099Z,1.30
2018-06-04T19:55:58.368Z,1.90
2018-06-04T19:58:57.260Z,1.20
2018-06-04T20:01:47.352Z,1.53
2018-06-04T20:04:48.723Z,1.83
2018-06-04T20:07:46.758Z,1.80
2018-06-04T20:10:44.683Z,1.33
2018-06-04T20:13:42.699Z,1.60
2018-06-04T20:16:40.023Z,1.43
2018-06-04T20:19:38.057Z,1.50
2018-06-04T20:22:35.596Z,0.93
2018-06-04T20:25:32.924Z,4.70
2018-06-04T20:28:31.116Z,1.50
2018-06-04T20:31:29.274Z,1.90
2018-06-04T20:34:19.684Z,1.30
2018-06-04T20:37:17.932Z,2.87
2018-06-04T20:40:15.933Z,1.20
2018-06-04T20:43:14.165Z,1.43
2018-06-04T20:46:11.947Z,1.63
2018-06-04T20:49:09.294Z,1.57
2018-06-04T20:52:08.214Z,2.03
2018-06-04T20:55:07.132Z,0.93
2018-06-04T20:58:04.471Z,1.20
2018-06-04T21:01:01.817Z,1.33
2018-06-04T21:03:59.949Z,1.33
2018-06-04T21:06:58.026Z,1.50
2018-06-04T21:09:55.163Z,1.43
2018-06-04T21:12:53.244Z,1.20
2018-06-04T21:15:51.312Z,1.10
2018-06-04T21:18:49.460Z,1.00
2018-06-04T21:21:46.699Z,1.27
2018-06-04T21:24:43.943Z,1.27
2018-06-04T21:27:41.165Z,1.20
2018-06-04T21:30:39.385Z,1.10
2018-06-04T21:33:37.530Z,1.47
2018-06-04T21:36:35.708Z,0.97
2018-06-04T21:39:33.862Z,1.03
2018-06-04T21:42:32.059Z,1.20
2018-06-04T21:45:30.083Z,1.00
2018-06-04T21:48:27.255Z,1.10
2018-06-04T21:51:25.251Z,1.10
2018-06-04T21:54:23.383Z,1.10
2018-06-04T21:57:20.713Z,0.90
2018-06-04T22:00:20.749Z,0.97
2018-06-04T22:03:18.841Z,1.47
2018-06-04T22:06:16.871Z,1.13
2018-06-04T22:09:13.991Z,1.37
2018-06-04T22:12:12.007Z,0.90
2018-06-04T22:15:10.071Z,0.70
2018-06-04T22:18:07.877Z,0.87
2018-06-04T22:21:05.906Z,0.90
2018-06-04T22:24:03.361Z,1.00
2018-06-04T22:27:01.375Z,1.10
2018-06-04T22:29:59.443Z,0.80
2018-06-04T22:32:57.337Z,0.50
2018-06-04T22:35:55.183Z,0.90
2018-06-04T22:38:52.362Z,0.80
2018-06-04T22:41:50.404Z,1.30
2018-06-04T22:44:48.464Z,1.10
2018-06-04T22:47:46.602Z,0.57
2018-06-04T22:50:44.670Z,0.70
2018-06-04T22:53:41.900Z,0.80
2018-06-04T22:56:39.978Z,0.60
2018-06-04T22:59:37.189Z,0.97
2018-06-04T23:02:35.261Z,0.80
2018-06-04T23:05:33.364Z,0.90
2018-06-04T23:08:31.455Z,0.80
2018-06-04T23:11:29.203Z,1.07
2018-06-04T23:14:27.285Z,0.80
2018-06-04T23:17:25.308Z,1.23
2018-06-04T23:20:22.515Z,0.90
2018-06-04T23:23:19.712Z,0.93
2018-06-04T23:26:16.923Z,1.47
2018-06-04T23:29:14.217Z,1.10
2018-06-04T23:32:11.381Z,0.83
2018-06-04T23:35:09.423Z,1.00
2018-06-04T23:38:07.394Z,0.90
2018-06-04T23:41:04.814Z,1.10
2018-06-04T23:44:01.985Z,1.10
2018-06-04T23:47:00.123Z,1.27
2018-06-04T23:49:58.238Z,0.80
2018-06-04T23:52:56.315Z,1.00
2018-06-04T23:55:54.418Z,0.80
2018-06-04T23:58:51.744Z,1.33
